createdAt,value
2023-01-13T00:02:06.458Z,7.97
2023-01-13T00:04:33.367Z,7.15
2023-01-13T00:07:00.251Z,7.32
2023-01-13T00:09:26.955Z,11.50
2023-01-13T00:11:53.708Z,6.90
2023-01-13T00:14:20.515Z,7.47
2023-01-13T00:16:47.262Z,7.38
2023-01-13T00:19:13.980Z,6.63
2023-01-13T00:21:40.744Z,6.97
2023-01-13T00:24:07.458Z,7.57
2023-01-13T00:26:35.923Z,7.03
2023-01-13T00:29:02.876Z,6.40
2023-01-13T00:31:30.484Z,6.90
2023-01-13T00:33:59.202Z,6.22
2023-01-13T00:36:26.504Z,7.97
2023-01-13T00:38:53.591Z,7.10
2023-01-13T00:41:23.087Z,4.90
2023-01-13T00:43:50.537Z,5.18
2023-01-13T00:46:20.285Z,5.65
2023-01-13T00:48:47.690Z,5.57
2023-01-13T00:51:20.539Z,5.20
2023-01-13T00:53:49.644Z,6.22
2023-01-13T00:56:18.114Z,6.38
2023-01-13T00:58:46.079Z,6.28
2023-01-13T01:01:24.508Z,6.57
2023-01-13T01:03:53.643Z,6.75
2023-01-13T01:06:23.328Z,6.10
2023-01-13T01:08:51.246Z,6.22
2023-01-13T01:11:21.300Z,5.82
2023-01-13T01:13:48.763Z,5.90
2023-01-13T01:16:18.059Z,6.10
2023-01-13T01:18:47.118Z,5.32
2023-01-13T01:21:14.323Z,5.13
2023-01-13T01:23:41.426Z,4.85
2023-01-13T01:26:18.325Z,7.80
2023-01-13T01:28:45.399Z,5.82
2023-01-13T01:31:18.278Z,5.38
2023-01-13T01:33:46.650Z,5.35
2023-01-13T01:36:15.386Z,5.85
2023-01-13T01:38:42.349Z,6.22
2023-01-13T01:41:15.178Z,7.15
2023-01-13T01:43:59.269Z,4.78
2023-01-13T01:46:27.478Z,4.82
2023-01-13T01:48:58.835Z,5.40
2023-01-13T01:51:25.805Z,5.30
2023-01-13T01:53:55.388Z,4.85
2023-01-13T01:56:22.334Z,4.22
2023-01-13T01:58:51.980Z,5.70
2023-01-13T02:01:18.920Z,6.20
2023-01-13T02:03:58.489Z,4.57
2023-01-13T02:06:25.449Z,5.63
2023-01-13T02:08:53.052Z,6.65
2023-01-13T02:11:52.877Z,6.63
2023-01-13T02:14:23.822Z,5.55
2023-01-13T02:17:09.506Z,6.53
2023-01-13T02:20:17.543Z,5.40
2023-01-13T02:23:08.901Z,5.70
2023-01-13T02:25:59.752Z,6.13
2023-01-13T02:29:14.702Z,5.13
2023-01-13T02:31:45.087Z,4.85
2023-01-13T02:34:11.788Z,4.85
2023-01-13T02:36:49.766Z,5.63
2023-01-13T02:39:29.898Z,5.38
2023-01-13T02:42:25.337Z,5.25
2023-01-13T02:44:59.480Z,6.32
2023-01-13T02:47:28.542Z,5.75
2023-01-13T02:50:00.675Z,4.57
2023-01-13T02:52:38.912Z,5.72
2023-01-13T02:55:19.808Z,6.82
2023-01-13T02:57:48.585Z,6.03
2023-01-13T03:00:17.055Z,5.15
2023-01-13T03:02:44.028Z,6.03
2023-01-13T03:05:15.747Z,6.07
2023-01-13T03:07:55.737Z,6.00
2023-01-13T03:10:49.823Z,5.88
2023-01-13T03:13:16.689Z,4.88
2023-01-13T03:16:01.725Z,4.70
2023-01-13T03:18:56.015Z,4.07
2023-01-13T03:21:37.749Z,5.40
2023-01-13T03:24:17.116Z,4.82
2023-01-13T03:26:59.253Z,4.75
2023-01-13T03:29:32.277Z,5.25
2023-01-13T03:32:02.387Z,5.40
2023-01-13T03:34:35.875Z,4.85
2023-01-13T03:37:05.557Z,4.50
2023-01-13T03:39:36.716Z,4.97
2023-01-13T03:42:15.177Z,6.00
2023-01-13T03:44:51.588Z,6.55
2023-01-13T03:47:41.473Z,7.07
2023-01-13T03:50:14.380Z,6.00
2023-01-13T03:52:47.714Z,7.22
2023-01-13T03:55:22.744Z,7.40
2023-01-13T03:58:01.305Z,6.47
2023-01-13T04:00:36.437Z,5.75
2023-01-13T04:03:13.563Z,6.15
2023-01-13T04:05:45.965Z,6.05
2023-01-13T04:08:21.335Z,6.90
2023-01-13T04:11:26.705Z,6.05
2023-01-13T04:13:55.342Z,5.65
2023-01-13T04:16:22.332Z,5.50
2023-01-13T04:18:50.257Z,6.95
2023-01-13T04:21:17.058Z,6.20
2023-01-13T04:23:43.848Z,5.45
2023-01-13T04:26:10.764Z,4.90
2023-01-13T04:28:37.573Z,4.55
2023-01-13T04:31:04.356Z,4.40
2023-01-13T04:33:31.151Z,4.63
2023-01-13T04:35:57.896Z,3.75
2023-01-13T04:38:24.660Z,3.72
2023-01-13T04:40:51.400Z,4.78
2023-01-13T04:43:18.253Z,4.38
2023-01-13T04:45:45.303Z,4.43
2023-01-13T04:48:12.975Z,3.78
2023-01-13T04:50:40.315Z,3.70
2023-01-13T04:53:07.390Z,3.72
2023-01-13T04:55:35.344Z,4.35
2023-01-13T04:58:04.663Z,3.58
2023-01-13T05:00:32.081Z,3.70
2023-01-13T05:02:59.558Z,4.07
2023-01-13T05:05:27.579Z,3.38
2023-01-13T05:07:54.436Z,4.53
2023-01-13T05:10:23.888Z,5.85
2023-01-13T05:13:10.155Z,7.97
2023-01-13T05:15:55.447Z,7.07
2023-01-13T05:18:22.386Z,7.22
2023-01-13T05:20:50.079Z,8.43
2023-01-13T05:23:35.279Z,5.65
2023-01-13T05:26:02.461Z,6.10
2023-01-13T20:55:16.414Z,16.25
2023-01-13T20:57:54.800Z,16.55
2023-01-13T21:00:23.108Z,16.88
2023-01-13T21:02:51.120Z,15.98
2023-01-13T21:05:18.307Z,15.68
2023-01-13T21:07:45.444Z,13.05
2023-01-13T21:10:13.062Z,15.70
2023-01-13T21:12:59.077Z,21.55
2023-01-13T21:15:27.943Z,17.95
2023-01-13T21:18:13.794Z,20.70
2023-01-13T21:20:42.198Z,15.40
2023-01-13T21:23:13.138Z,19.45
2023-01-13T21:25:42.015Z,13.90
2023-01-13T21:28:15.285Z,16.48
2023-01-13T21:30:45.895Z,18.85
2023-01-13T21:33:16.655Z,19.33
2023-01-13T21:35:47.165Z,15.07
2023-01-13T21:38:14.345Z,15.68
2023-01-13T21:41:08.632Z,13.23
2023-01-13T21:43:56.152Z,14.02
2023-01-13T21:46:43.063Z,10.32
2023-01-13T21:49:10.224Z,12.20
2023-01-13T21:51:37.721Z,13.68
2023-01-13T21:54:07.478Z,10.57
2023-01-13T21:56:35.783Z,10.23
2023-01-13T21:59:05.575Z,14.60
2023-01-13T22:01:36.350Z,13.48
2023-01-13T22:06:49.471Z,15.80
2023-01-13T22:09:17.124Z,15.00
2023-01-13T22:11:44.055Z,15.98
2023-01-13T22:14:11.205Z,14.55
2023-01-13T22:16:41.920Z,14.70
2023-01-13T22:19:10.582Z,15.38
2023-01-13T22:21:38.179Z,14.63
2023-01-13T22:24:05.437Z,15.40
2023-01-13T22:26:32.415Z,18.40
2023-01-13T22:28:59.314Z,11.90
2023-01-13T22:31:26.199Z,12.43
2023-01-13T22:33:55.250Z,12.70
2023-01-13T22:36:26.549Z,14.18
2023-01-13T22:38:56.865Z,15.07
2023-01-13T22:41:23.845Z,11.02
2023-01-13T22:43:59.869Z,9.95
2023-01-13T22:46:26.960Z,8.90
2023-01-13T22:48:56.055Z,10.82
2023-01-13T22:51:23.283Z,9.10
2023-01-13T22:53:50.328Z,9.18
2023-01-13T22:56:22.778Z,9.40
2023-01-13T22:59:00.211Z,7.95
2023-01-13T23:01:29.647Z,8.68
2023-01-13T23:03:59.960Z,8.00
2023-01-13T23:06:29.008Z,6.68
2023-01-13T23:08:56.680Z,6.53
2023-01-13T23:11:26.705Z,7.85
2023-01-13T23:13:59.363Z,6.20
2023-01-13T23:16:28.050Z,6.68
2023-01-13T23:18:55.219Z,8.10
2023-01-13T23:21:26.174Z,7.97
2023-01-13T23:23:54.206Z,7.78
2023-01-13T23:26:22.036Z,6.90
2023-01-13T23:28:49.240Z,6.10
2023-01-13T23:31:21.156Z,6.25
2023-01-13T23:33:48.959Z,5.38
2023-01-13T23:36:21.776Z,4.97
2023-01-13T23:38:48.803Z,5.22
2023-01-13T23:41:17.844Z,4.32
2023-01-13T23:43:56.722Z,3.75
2023-01-13T23:46:24.478Z,4.72
2023-01-13T23:48:52.049Z,4.53
2023-01-13T23:51:21.418Z,3.65
2023-01-13T23:53:50.140Z,4.13
2023-01-13T23:56:23.666Z,3.85
2023-01-13T23:58:51.305Z,4.80
